createdAt,value
2018-01-18T00:00:50.449Z,978.85
2018-01-18T00:02:59.487Z,978.90
2018-01-18T00:03:59.394Z,978.93
2018-01-18T00:06:10.860Z,979.00
2018-01-18T00:07:11.641Z,978.93
2018-01-18T00:09:03.750Z,978.93
2018-01-18T00:10:03.618Z,979.06
2018-01-18T00:11:59.542Z,979.02
2018-01-18T00:12:59.440Z,979.01
2018-01-18T00:14:53.315Z,979.02
2018-01-18T00:15:53.215Z,979.09
2018-01-18T00:17:47.454Z,979.05
2018-01-18T00:18:47.394Z,979.09
2018-01-18T00:20:41.502Z,979.07
2018-01-18T00:21:41.387Z,979.13
2018-01-18T00:23:34.217Z,979.10
2018-01-18T00:24:34.126Z,979.01
2018-01-18T00:26:27.092Z,978.98
2018-01-18T00:27:26.989Z,978.95
2018-01-18T00:29:19.820Z,978.95
2018-01-18T00:30:19.739Z,978.93
2018-01-18T00:32:12.620Z,978.90
2018-01-18T00:33:12.472Z,978.89
2018-01-18T00:35:06.742Z,978.89
2018-01-18T00:36:06.661Z,978.82
2018-01-18T00:38:00.657Z,978.78
2018-01-18T00:39:00.530Z,978.90
2018-01-18T00:40:53.370Z,978.90
2018-01-18T00:41:53.330Z,978.95
2018-01-18T00:43:46.659Z,978.92
2018-01-18T00:44:46.536Z,978.85
2018-01-18T00:46:40.785Z,978.88
2018-01-18T00:47:40.694Z,978.94
2018-01-18T00:49:34.956Z,978.97
2018-01-18T00:50:34.869Z,978.97
2018-01-18T00:52:28.896Z,978.98
2018-01-18T00:53:28.787Z,978.97
2018-01-18T00:55:21.662Z,978.80
2018-01-18T00:56:21.542Z,978.80
2018-01-18T00:58:15.785Z,978.77
2018-01-18T00:59:15.704Z,978.79
2018-01-18T01:01:11.002Z,978.75
2018-01-18T01:02:10.885Z,978.79
2018-01-18T01:04:05.001Z,978.64
2018-01-18T01:05:04.902Z,978.66
2018-01-18T01:06:59.210Z,978.61
2018-01-18T01:07:59.119Z,978.59
2018-01-18T01:09:53.258Z,978.51
2018-01-18T01:10:53.176Z,978.43
2018-01-18T01:12:47.420Z,978.45
2018-01-18T01:13:47.320Z,978.33
2018-01-18T01:15:41.609Z,978.36
2018-01-18T01:16:41.509Z,978.33
2018-01-18T01:18:35.563Z,978.31
2018-01-18T01:19:35.469Z,978.32
2018-01-18T01:21:28.251Z,978.37
2018-01-18T01:22:28.151Z,978.37
2018-01-18T01:24:21.033Z,978.41
2018-01-18T01:25:20.906Z,978.47
2018-01-18T01:27:15.154Z,978.44
2018-01-18T01:28:15.072Z,978.46
2018-01-18T01:30:09.363Z,978.47
2018-01-18T01:31:09.242Z,978.50
2018-01-18T01:33:03.240Z,978.49
2018-01-18T01:34:03.168Z,978.46
2018-01-18T01:35:56.022Z,978.48
2018-01-18T01:36:55.913Z,978.42
2018-01-18T01:38:48.737Z,978.35
2018-01-18T01:39:48.682Z,978.40
2018-01-18T01:41:41.501Z,978.34
2018-01-18T01:42:41.498Z,978.34
2018-01-18T01:44:34.252Z,978.27
2018-01-18T01:45:34.237Z,978.24
2018-01-18T01:47:27.012Z,978.28
2018-01-18T01:48:26.936Z,978.30
2018-01-18T01:50:20.249Z,978.27
2018-01-18T01:51:20.165Z,978.26
2018-01-18T01:53:13.052Z,978.27
2018-01-18T01:54:12.924Z,978.25
2018-01-18T01:56:05.753Z,978.09
2018-01-18T01:57:05.653Z,978.11
2018-01-18T01:58:59.925Z,978.14
2018-01-18T01:59:59.819Z,978.11
2018-01-18T02:01:53.815Z,978.08
2018-01-18T02:02:53.714Z,978.07
2018-01-18T02:04:47.987Z,978.06
2018-01-18T02:05:47.870Z,978.01
2018-01-18T02:07:41.964Z,977.93
2018-01-18T02:08:41.878Z,977.96
2018-01-18T02:10:34.772Z,977.94
2018-01-18T02:11:34.632Z,977.93
2018-01-18T02:13:27.478Z,977.86
2018-01-18T02:14:27.387Z,977.83
2018-01-18T02:16:20.226Z,977.80
2018-01-18T02:17:20.121Z,977.77
2018-01-18T02:19:12.962Z,977.76
2018-01-18T02:20:12.879Z,977.71
2018-01-18T02:22:06.022Z,977.62
2018-01-18T02:23:05.621Z,977.60
2018-01-18T02:24:58.470Z,977.59
2018-01-18T02:25:58.391Z,977.61
2018-01-18T02:27:51.249Z,977.57
2018-01-18T02:28:51.140Z,977.55
2018-01-18T02:30:43.959Z,977.50
2018-01-18T02:31:43.874Z,977.49
2018-01-18T02:33:36.725Z,977.52
2018-01-18T02:34:36.618Z,977.47
2018-01-18T02:36:30.928Z,977.53
2018-01-18T02:37:30.783Z,977.53
2018-01-18T02:39:25.087Z,977.53
2018-01-18T02:40:24.953Z,977.50
2018-01-18T02:42:19.361Z,977.57
2018-01-18T02:43:18.877Z,977.38
2018-01-18T02:45:13.153Z,977.44
2018-01-18T02:46:13.048Z,977.44
2018-01-18T02:48:07.317Z,977.41
2018-01-18T02:49:07.235Z,977.41
2018-01-18T02:51:01.373Z,977.34
2018-01-18T02:52:01.190Z,977.29
2018-01-18T02:53:54.717Z,977.28
2018-01-18T02:54:53.870Z,977.16
2018-01-18T02:56:48.123Z,977.14
2018-01-18T02:57:48.019Z,977.06
2018-01-18T02:59:42.338Z,977.01
2018-01-18T03:00:42.208Z,977.01
2018-01-18T03:02:36.501Z,976.87
2018-01-18T03:03:36.368Z,976.92
2018-01-18T03:05:30.624Z,976.84
2018-01-18T03:06:30.544Z,976.77
2018-01-18T03:08:25.288Z,976.67
2018-01-18T03:09:24.582Z,976.69
2018-01-18T03:11:17.409Z,976.63
2018-01-18T03:12:17.684Z,976.66
2018-01-18T03:14:10.181Z,976.68
2018-01-18T03:15:10.197Z,976.63
2018-01-18T03:17:02.999Z,976.60
2018-01-18T03:18:03.208Z,976.62
2018-01-18T03:19:56.844Z,976.60
2018-01-18T03:20:56.915Z,976.55
2018-01-18T03:22:49.945Z,976.45
2018-01-18T03:23:49.884Z,976.32
2018-01-18T03:25:44.109Z,976.28
2018-01-18T03:26:44.041Z,976.33
2018-01-18T03:28:38.338Z,976.19
2018-01-18T03:29:38.270Z,976.24
2018-01-18T03:31:32.619Z,976.24
2018-01-18T03:32:32.105Z,976.18
2018-01-18T03:34:24.936Z,976.17
2018-01-18T03:35:25.242Z,976.06
2018-01-18T03:37:17.713Z,976.13
2018-01-18T03:38:17.603Z,976.01
2018-01-18T03:40:10.430Z,975.88
2018-01-18T03:41:10.338Z,975.79
2018-01-18T03:44:31.859Z,975.85
2018-01-18T03:45:31.742Z,975.81
2018-01-18T03:47:27.883Z,975.89
2018-01-18T03:48:27.291Z,975.73
2018-01-18T03:50:21.549Z,975.73
2018-01-18T03:51:21.450Z,975.72
2018-01-18T03:53:15.440Z,975.70
2018-01-18T03:54:16.688Z,975.70
2018-01-18T03:56:09.203Z,975.59
2018-01-18T03:57:08.097Z,975.56
2018-01-18T03:59:00.951Z,975.60
2018-01-18T04:00:00.852Z,975.49
2018-01-18T04:01:55.077Z,975.44
2018-01-18T04:02:53.591Z,975.38
2018-01-18T04:04:46.901Z,975.37
2018-01-18T04:05:46.363Z,975.26
2018-01-18T04:07:40.622Z,975.31
2018-01-18T04:08:40.521Z,975.25
2018-01-18T04:10:34.794Z,975.29
2018-01-18T04:11:34.707Z,975.09
2018-01-18T04:13:29.549Z,975.12
2018-01-18T04:14:28.940Z,975.16
2018-01-18T04:16:21.937Z,974.96
2018-01-18T04:17:21.840Z,975.02
2018-01-18T04:19:16.143Z,974.88
2018-01-18T04:20:15.997Z,974.86
2018-01-18T04:22:10.607Z,974.81
2018-01-18T04:23:10.245Z,974.81
2018-01-18T04:25:04.382Z,974.83
2018-01-18T04:26:04.276Z,974.77
2018-01-18T04:27:58.580Z,974.78
2018-01-18T04:28:58.490Z,974.75
2018-01-18T04:30:52.871Z,974.66
2018-01-18T04:31:52.697Z,974.72
2018-01-18T04:33:46.721Z,974.59
2018-01-18T04:34:46.533Z,974.50
2018-01-18T04:36:40.786Z,974.51
2018-01-18T04:37:40.673Z,974.46
2018-01-18T04:39:34.984Z,974.44
2018-01-18T04:40:34.851Z,974.36
2018-01-18T04:42:30.212Z,974.29
2018-01-18T04:43:30.130Z,974.29
2018-01-18T04:45:24.297Z,974.22
2018-01-18T04:46:24.218Z,974.07
2018-01-18T04:48:18.537Z,974.18
2018-01-18T04:49:18.212Z,974.09
2018-01-18T04:51:14.903Z,974.03
2018-01-18T04:52:14.818Z,974.05
2018-01-18T04:54:09.124Z,973.91
2018-01-18T04:55:08.991Z,973.86
2018-01-18T04:57:03.232Z,973.88
2018-01-18T04:58:03.137Z,973.79
2018-01-18T04:59:57.428Z,973.85
2018-01-18T05:00:57.304Z,973.72
2018-01-18T05:02:51.570Z,973.72
2018-01-18T05:03:51.474Z,973.75
2018-01-18T05:05:45.758Z,973.70
2018-01-18T05:06:45.656Z,973.57
2018-01-18T05:08:39.906Z,973.49
2018-01-18T05:09:39.824Z,973.32
2018-01-18T05:11:34.088Z,973.32
2018-01-18T05:12:33.979Z,973.24
2018-01-18T05:14:28.256Z,973.20
2018-01-18T05:15:28.167Z,973.17
2018-01-18T05:17:22.161Z,973.11
2018-01-18T05:18:22.073Z,973.13
2018-01-18T05:20:14.908Z,973.04
2018-01-18T05:21:14.798Z,973.04
2018-01-18T05:23:09.080Z,972.93
2018-01-18T05:24:08.960Z,972.90
2018-01-18T05:26:03.238Z,972.92
2018-01-18T05:27:03.146Z,972.83
2018-01-18T05:28:57.471Z,972.66
2018-01-18T05:29:57.353Z,972.64
2018-01-18T05:31:51.582Z,972.55
2018-01-18T05:32:51.491Z,972.54
2018-01-18T05:34:45.784Z,972.43
2018-01-18T05:35:45.693Z,972.35
2018-01-18T05:37:39.684Z,972.31
2018-01-18T05:38:39.592Z,972.23
2018-01-18T05:40:32.822Z,972.17
2018-01-18T05:41:32.453Z,972.19
2018-01-18T05:43:26.676Z,972.09
2018-01-18T05:44:26.603Z,972.06
2018-01-18T05:46:20.622Z,972.06
2018-01-18T05:47:20.500Z,972.05
2018-01-18T05:49:14.745Z,971.90
2018-01-18T05:50:14.665Z,971.88
2018-01-18T05:52:08.977Z,971.62
2018-01-18T05:53:08.871Z,971.65
2018-01-18T05:55:03.140Z,971.60
2018-01-18T05:56:03.059Z,971.51
2018-01-18T05:57:57.757Z,971.41
2018-01-18T05:58:57.652Z,971.31
2018-01-18T06:00:51.505Z,971.09
2018-01-18T06:01:51.410Z,971.08
2018-01-18T06:03:45.721Z,971.01
2018-01-18T06:04:45.616Z,970.86
2018-01-18T06:06:39.834Z,970.79
2018-01-18T06:07:39.762Z,970.69
2018-01-18T06:09:33.777Z,970.39
2018-01-18T06:10:33.831Z,970.39
2018-01-18T06:12:26.902Z,970.24
2018-01-18T06:13:26.810Z,970.14
2018-01-18T06:15:20.711Z,970.12
2018-01-18T06:16:20.599Z,970.06
2018-01-18T06:18:14.567Z,969.92
2018-01-18T06:19:14.730Z,969.96
2018-01-18T06:21:09.768Z,969.65
2018-01-18T06:22:09.663Z,969.64
2018-01-18T06:24:03.931Z,969.51
2018-01-18T06:25:03.854Z,969.50
2018-01-18T06:26:57.868Z,969.36
2018-01-18T06:27:57.744Z,969.43
2018-01-18T06:29:51.975Z,969.39
2018-01-18T06:30:51.897Z,969.27
2018-01-18T06:32:46.185Z,969.13
2018-01-18T06:33:46.096Z,969.11
2018-01-18T06:35:40.341Z,969.01
2018-01-18T06:36:40.262Z,968.89
2018-01-18T06:38:34.551Z,968.68
2018-01-18T06:39:34.461Z,968.61
2018-01-18T06:41:28.800Z,968.62
2018-01-18T06:42:28.738Z,968.44
2018-01-18T06:44:23.131Z,968.41
2018-01-18T06:45:22.639Z,968.36
2018-01-18T06:47:16.876Z,968.40
2018-01-18T06:48:16.811Z,968.31
2018-01-18T06:50:11.117Z,968.20
2018-01-18T06:51:10.985Z,968.09
2018-01-18T06:53:05.346Z,968.07
2018-01-18T06:54:05.172Z,968.04
2018-01-18T06:55:59.493Z,967.76
2018-01-18T06:56:59.336Z,967.73
2018-01-18T06:58:53.721Z,967.57
2018-01-18T06:59:53.639Z,967.54
2018-01-18T07:01:46.697Z,967.41
2018-01-18T07:02:46.121Z,967.30
2018-01-18T07:04:40.346Z,967.30
2018-01-18T07:05:40.162Z,967.26
2018-01-18T07:07:34.676Z,967.12
2018-01-18T07:08:34.568Z,967.07
2018-01-18T07:10:28.832Z,966.94
2018-01-18T07:11:28.737Z,966.86
2018-01-18T07:13:22.718Z,966.71
2018-01-18T07:14:23.019Z,966.59
2018-01-18T07:16:15.456Z,966.57
2018-01-18T07:17:15.370Z,966.39
2018-01-18T07:19:09.805Z,966.40
2018-01-18T07:20:09.645Z,966.28
2018-01-18T07:22:04.887Z,966.14
2018-01-18T07:23:04.816Z,966.15
2018-01-18T07:24:59.109Z,965.87
2018-01-18T07:25:58.994Z,965.52
2018-01-18T07:27:53.264Z,965.25
2018-01-18T07:28:53.164Z,965.33
2018-01-18T07:30:47.470Z,965.09
2018-01-18T07:31:47.365Z,965.23
2018-01-18T07:33:41.651Z,965.05
2018-01-18T07:34:41.549Z,965.27
2018-01-18T07:36:35.603Z,964.92
2018-01-18T07:37:35.490Z,965.05
2018-01-18T07:39:29.717Z,964.83
2018-01-18T07:40:29.626Z,964.78
2018-01-18T07:42:23.890Z,964.76
2018-01-18T07:43:23.785Z,964.79
2018-01-18T07:45:18.046Z,964.76
2018-01-18T07:46:17.955Z,964.50
2018-01-18T07:48:12.258Z,964.40
2018-01-18T07:49:12.172Z,964.26
2018-01-18T07:51:05.432Z,964.13
2018-01-18T07:52:05.339Z,964.10
2018-01-18T07:53:59.644Z,963.91
2018-01-18T07:54:59.516Z,964.14
2018-01-18T07:56:53.754Z,963.97
2018-01-18T07:57:53.688Z,963.88
2018-01-18T07:59:47.867Z,963.76
2018-01-18T08:00:47.619Z,963.61
2018-01-18T08:02:40.872Z,963.61
2018-01-18T08:03:40.356Z,963.52
2018-01-18T08:05:33.618Z,963.59
2018-01-18T08:06:33.492Z,963.81
2018-01-18T08:08:27.360Z,963.78
2018-01-18T08:09:27.270Z,963.68
2018-01-18T08:11:21.532Z,963.83
2018-01-18T08:12:21.417Z,963.85
2018-01-18T08:14:15.692Z,963.69
2018-01-18T08:15:15.610Z,963.51
2018-01-18T08:17:09.847Z,963.25
2018-01-18T08:18:09.736Z,963.12
2018-01-18T08:20:03.981Z,963.04
2018-01-18T08:21:03.906Z,963.00
2018-01-18T08:22:58.221Z,962.82
2018-01-18T08:23:58.104Z,962.86
2018-01-18T08:25:53.413Z,963.15
2018-01-18T08:26:53.286Z,963.18
2018-01-18T08:28:47.573Z,963.24
2018-01-18T08:29:47.463Z,963.36
2018-01-18T08:31:41.729Z,963.33
2018-01-18T08:32:41.641Z,963.23
2018-01-18T08:34:35.917Z,963.15
2018-01-18T08:35:35.815Z,963.10
2018-01-18T08:37:30.240Z,962.93
2018-01-18T08:38:29.733Z,962.62
2018-01-18T08:40:22.976Z,962.83
2018-01-18T08:41:22.498Z,962.81
2018-01-18T08:43:15.818Z,962.73
2018-01-18T08:44:15.744Z,962.74
2018-01-18T08:46:09.595Z,962.59
2018-01-18T08:47:09.506Z,962.36
2018-01-18T08:49:04.307Z,962.65
2018-01-18T08:50:03.755Z,962.48
2018-01-18T08:51:57.849Z,962.27
2018-01-18T08:52:57.749Z,962.40
2018-01-18T08:54:51.747Z,962.32
2018-01-18T08:55:51.790Z,962.36
2018-01-18T08:57:45.921Z,962.16
2018-01-18T08:58:45.809Z,961.92
2018-01-18T09:00:40.174Z,961.95
2018-01-18T09:01:39.919Z,962.00
2018-01-18T09:03:34.191Z,961.95
2018-01-18T09:04:34.086Z,961.77
2018-01-18T09:06:28.173Z,961.88
2018-01-18T09:07:28.088Z,961.93
2018-01-18T09:09:20.938Z,962.04
2018-01-18T09:10:21.241Z,962.02
2018-01-18T09:12:15.098Z,961.73
2018-01-18T09:13:14.986Z,961.78
2018-01-18T09:15:09.275Z,961.57
2018-01-18T09:16:09.155Z,961.29
2018-01-18T09:18:03.395Z,961.51
2018-01-18T09:19:03.315Z,961.54
2018-01-18T09:20:57.696Z,961.33
2018-01-18T09:21:57.509Z,961.11
2018-01-18T09:23:51.905Z,961.16
2018-01-18T09:24:51.698Z,961.03
2018-01-18T09:26:45.934Z,961.23
2018-01-18T09:27:45.839Z,961.29
2018-01-18T09:29:40.092Z,961.15
2018-01-18T09:30:39.997Z,961.07
2018-01-18T09:32:34.303Z,961.13
2018-01-18T09:33:34.171Z,961.25
2018-01-18T09:35:28.429Z,960.81
2018-01-18T09:36:28.384Z,961.02
2018-01-18T09:38:22.625Z,961.09
2018-01-18T09:39:22.510Z,960.98
2018-01-18T09:41:16.760Z,960.96
2018-01-18T09:42:16.686Z,960.77
2018-01-18T09:44:10.944Z,960.75
2018-01-18T09:45:10.856Z,960.52
2018-01-18T09:47:05.089Z,960.52
2018-01-18T09:48:05.000Z,960.59
2018-01-18T09:49:59.754Z,960.77
2018-01-18T09:50:59.258Z,960.70
2018-01-18T09:52:53.323Z,960.91
2018-01-18T09:53:53.039Z,960.09
2018-01-18T09:55:47.666Z,959.75
2018-01-18T09:56:47.506Z,960.00
2018-01-18T09:58:40.306Z,960.01
2018-01-18T09:59:40.225Z,960.34
2018-01-18T10:01:34.236Z,960.62
2018-01-18T10:02:34.149Z,960.58
2018-01-18T10:04:28.568Z,960.43
2018-01-18T10:05:28.099Z,960.18
2018-01-18T10:07:22.346Z,960.30
2018-01-18T10:08:22.226Z,960.64
2018-01-18T10:10:16.545Z,960.57
2018-01-18T10:11:16.397Z,960.52
2018-01-18T10:13:09.492Z,960.68
2018-01-18T10:14:09.457Z,960.44
2018-01-18T10:16:03.333Z,960.47
2018-01-18T10:17:03.241Z,960.52
2018-01-18T10:18:57.615Z,960.31
2018-01-18T10:19:57.413Z,960.33
2018-01-18T10:21:52.508Z,960.38
2018-01-18T10:22:51.680Z,960.25
2018-01-18T10:24:45.575Z,959.95
2018-01-18T10:25:45.490Z,960.01
2018-01-18T10:27:39.760Z,960.06
2018-01-18T10:28:39.660Z,960.01
2018-01-18T10:30:33.952Z,960.00
2018-01-18T10:31:33.888Z,959.86
2018-01-18T10:33:28.087Z,959.73
2018-01-18T10:34:28.011Z,959.64
2018-01-18T10:36:22.306Z,959.77
2018-01-18T10:37:22.208Z,959.44
2018-01-18T10:39:16.926Z,959.34
2018-01-18T10:40:16.440Z,959.42
2018-01-18T10:42:09.470Z,959.48
2018-01-18T10:43:09.057Z,959.57
2018-01-18T10:45:03.188Z,959.46
2018-01-18T10:46:03.098Z,959.16
2018-01-18T10:47:57.404Z,958.99
2018-01-18T10:48:57.274Z,959.09
2018-01-18T10:50:51.529Z,959.38
2018-01-18T10:51:51.451Z,958.99
2018-01-18T10:53:45.502Z,959.11
2018-01-18T10:54:45.507Z,959.05
2018-01-18T10:56:38.422Z,958.95
2018-01-18T10:57:38.565Z,958.85
2018-01-18T10:59:31.610Z,958.82
2018-01-18T11:00:31.076Z,958.96
2018-01-18T11:02:26.377Z,958.95
2018-01-18T11:03:26.298Z,958.93
2018-01-18T11:05:20.397Z,959.06
2018-01-18T11:06:20.683Z,959.08
2018-01-18T11:08:13.526Z,958.91
2018-01-18T11:09:13.012Z,959.05
2018-01-18T11:11:07.258Z,958.81
2018-01-18T11:12:07.179Z,958.60
2018-01-18T11:14:01.163Z,958.31
2018-01-18T11:15:01.079Z,958.57
2018-01-18T11:16:55.328Z,958.42
2018-01-18T11:17:55.242Z,958.30
2018-01-18T11:19:49.225Z,958.20
2018-01-18T11:20:49.132Z,958.32
2018-01-18T11:22:43.421Z,958.13
2018-01-18T11:23:43.329Z,958.12
2018-01-18T11:25:37.601Z,958.06
2018-01-18T11:26:37.502Z,958.15
2018-01-18T11:28:31.692Z,958.28
2018-01-18T11:29:31.581Z,958.17
2018-01-18T11:31:24.423Z,958.05
2018-01-18T11:32:24.344Z,957.84
2018-01-18T11:34:18.590Z,957.90
2018-01-18T11:35:18.471Z,957.89
2018-01-18T11:37:12.830Z,957.66
2018-01-18T11:38:12.615Z,957.50
2018-01-18T11:40:06.759Z,957.37
2018-01-18T11:41:06.762Z,957.57
2018-01-18T11:43:00.857Z,957.57
2018-01-18T11:44:00.746Z,957.59
2018-01-18T11:45:55.011Z,957.52
2018-01-18T11:46:54.912Z,957.42
2018-01-18T11:48:49.194Z,957.45
2018-01-18T11:49:49.105Z,957.40
2018-01-18T11:51:42.407Z,957.23
2018-01-18T11:52:42.291Z,957.43
2018-01-18T11:54:36.762Z,957.30
2018-01-18T11:55:36.699Z,957.03
2018-01-18T11:57:29.835Z,957.19
2018-01-18T11:58:29.446Z,957.25
2018-01-18T12:00:22.896Z,957.32
2018-01-18T12:01:23.393Z,957.13
2018-01-18T12:03:15.522Z,957.14
2018-01-18T12:04:15.106Z,957.36
2018-01-18T12:06:09.144Z,957.35
2018-01-18T12:07:09.046Z,957.25
2018-01-18T12:09:03.680Z,957.29
2018-01-18T12:10:03.316Z,957.26
2018-01-18T12:11:56.315Z,957.16
2018-01-18T12:12:55.979Z,957.56
2018-01-18T12:14:50.172Z,957.52
2018-01-18T12:15:50.010Z,957.21
2018-01-18T12:17:44.284Z,957.60
2018-01-18T12:18:44.173Z,957.23
2018-01-18T12:20:38.512Z,957.40
2018-01-18T12:21:38.409Z,957.32
2018-01-18T12:23:42.378Z,957.65
2018-01-18T12:24:41.895Z,957.83
2018-01-18T12:26:36.145Z,957.39
2018-01-18T12:27:36.063Z,957.65
2018-01-18T12:29:30.303Z,957.56
2018-01-18T12:30:30.217Z,957.61
2018-01-18T12:32:24.519Z,957.72
2018-01-18T12:33:24.412Z,957.88
2018-01-18T12:35:19.945Z,957.65
2018-01-18T12:36:19.455Z,957.80
2018-01-18T12:38:13.328Z,957.81
2018-01-18T12:39:13.529Z,957.51
2018-01-18T12:41:06.168Z,957.96
2018-01-18T12:42:05.603Z,957.93
2018-01-18T12:43:59.807Z,957.72
2018-01-18T12:44:59.697Z,957.24
2018-01-18T12:46:53.917Z,957.64
2018-01-18T12:47:53.821Z,957.57
2018-01-18T12:49:47.894Z,957.97
2018-01-18T12:50:47.811Z,957.72
2018-01-18T12:52:41.837Z,958.02
2018-01-18T12:53:40.646Z,957.84
2018-01-18T12:55:34.929Z,958.13
2018-01-18T12:56:34.787Z,957.79
2018-01-18T12:58:28.793Z,958.40
2018-01-18T12:59:28.703Z,957.97
2018-01-18T13:01:22.954Z,957.93
2018-01-18T13:02:22.840Z,958.11
2018-01-18T13:04:16.848Z,958.32
2018-01-18T13:05:16.770Z,958.29
2018-01-18T13:07:11.023Z,958.24
2018-01-18T13:08:10.918Z,958.38
2018-01-18T13:10:05.036Z,958.79
2018-01-18T13:11:05.355Z,958.67
2018-01-18T13:12:59.219Z,958.88
2018-01-18T13:13:59.088Z,958.69
2018-01-18T13:15:53.378Z,958.99
2018-01-18T13:16:53.276Z,958.86
2018-01-18T13:18:48.048Z,959.15
2018-01-18T13:19:47.769Z,959.12
2018-01-18T13:21:41.640Z,959.40
2018-01-18T13:22:41.551Z,959.61
2018-01-18T13:24:35.817Z,959.53
2018-01-18T13:25:35.718Z,959.26
2018-01-18T13:27:29.980Z,959.54
2018-01-18T13:28:29.879Z,959.40
2018-01-18T13:30:24.153Z,959.65
2018-01-18T13:31:24.068Z,959.70
2018-01-18T13:33:18.337Z,959.62
2018-01-18T13:34:18.257Z,960.31
2018-01-18T13:36:12.533Z,960.38
2018-01-18T13:37:12.440Z,959.93
2018-01-18T13:39:06.536Z,960.03
2018-01-18T13:40:07.286Z,960.07
2018-01-18T13:42:00.103Z,960.22
2018-01-18T13:42:59.624Z,960.52
2018-01-18T13:44:52.372Z,960.32
2018-01-18T13:45:52.359Z,960.87
2018-01-18T13:47:46.505Z,960.40
2018-01-18T13:48:46.393Z,960.79
2018-01-18T13:50:40.573Z,960.61
2018-01-18T13:51:40.485Z,960.81
2018-01-18T13:53:34.788Z,961.03
2018-01-18T13:54:34.661Z,961.12
2018-01-18T13:56:28.680Z,961.04
2018-01-18T13:57:28.625Z,961.16
2018-01-18T13:59:22.851Z,961.31
2018-01-18T14:00:22.732Z,961.46
2018-01-18T14:02:17.233Z,961.23
2018-01-18T14:03:16.747Z,961.50
2018-01-18T14:05:11.022Z,961.62
2018-01-18T14:06:10.890Z,961.61
2018-01-18T14:08:05.154Z,961.74
2018-01-18T14:09:05.062Z,961.44
2018-01-18T14:10:59.502Z,962.12
2018-01-18T14:11:59.114Z,962.12
2018-01-18T14:13:52.159Z,961.96
2018-01-18T14:14:52.208Z,962.20
2018-01-18T14:16:46.104Z,962.32
2018-01-18T14:17:46.000Z,962.40
2018-01-18T14:19:40.590Z,962.53
2018-01-18T14:20:40.216Z,962.81
2018-01-18T14:22:34.458Z,963.45
2018-01-18T14:23:34.345Z,962.69
2018-01-18T14:25:28.786Z,962.64
2018-01-18T14:26:28.671Z,963.05
2018-01-18T14:28:21.641Z,963.22
2018-01-18T14:29:21.107Z,962.90
2018-01-18T14:31:15.337Z,963.18
2018-01-18T14:32:15.268Z,963.19
2018-01-18T14:34:09.794Z,963.86
2018-01-18T14:35:09.674Z,963.48
2018-01-18T14:37:02.628Z,963.63
2018-01-18T14:38:02.538Z,964.12
2018-01-18T14:39:55.496Z,963.88
2018-01-18T14:40:55.817Z,964.01
2018-01-18T14:42:49.627Z,964.00
2018-01-18T14:43:49.528Z,964.41
2018-01-18T14:45:43.849Z,964.15
2018-01-18T14:46:43.713Z,964.46
2018-01-18T14:48:37.987Z,964.52
2018-01-18T14:49:37.888Z,964.56
2018-01-18T14:51:31.930Z,964.75
2018-01-18T14:52:31.802Z,964.80
2018-01-18T14:54:26.077Z,964.73
2018-01-18T14:55:25.973Z,965.03
2018-01-18T14:57:20.211Z,965.01
2018-01-18T14:58:20.097Z,965.73
2018-01-18T15:00:14.359Z,965.33
2018-01-18T15:01:14.271Z,965.33
2018-01-18T15:03:08.354Z,965.49
2018-01-18T15:04:08.552Z,965.56
2018-01-18T15:06:01.290Z,965.64
2018-01-18T15:07:02.019Z,965.50
2018-01-18T15:08:55.343Z,965.68
2018-01-18T15:09:55.241Z,965.98
2018-01-18T15:11:49.465Z,966.02
2018-01-18T15:12:49.351Z,966.22
2018-01-18T15:14:42.865Z,966.09
2018-01-18T15:15:42.294Z,966.32
2018-01-18T15:17:35.465Z,966.37
2018-01-18T15:18:34.952Z,966.29
2018-01-18T15:20:29.209Z,966.75
2018-01-18T15:21:29.093Z,966.57
2018-01-18T15:23:23.371Z,966.55
2018-01-18T15:24:23.277Z,966.84
2018-01-18T15:26:17.596Z,966.98
2018-01-18T15:27:17.454Z,966.90
2018-01-18T15:29:11.704Z,967.26
2018-01-18T15:30:11.625Z,967.23
2018-01-18T15:32:05.706Z,967.06
2018-01-18T15:33:05.627Z,967.29
2018-01-18T15:34:59.876Z,967.43
2018-01-18T15:35:59.795Z,967.54
2018-01-18T15:37:53.936Z,967.80
2018-01-18T15:38:54.159Z,967.57
2018-01-18T15:40:47.041Z,967.67
2018-01-18T15:41:46.631Z,967.81
2018-01-18T15:43:40.851Z,967.99
2018-01-18T15:44:40.743Z,967.87
2018-01-18T15:46:35.006Z,968.10
2018-01-18T15:47:34.922Z,968.09
2018-01-18T15:49:29.177Z,968.30
2018-01-18T15:50:29.074Z,968.25
2018-01-18T15:52:23.369Z,968.53
2018-01-18T15:53:23.247Z,968.55
2018-01-18T15:55:17.696Z,968.81
2018-01-18T15:56:17.735Z,968.61
2018-01-18T15:58:10.948Z,968.80
2018-01-18T15:59:11.129Z,968.69
2018-01-18T16:01:03.914Z,968.74
2018-01-18T16:02:03.676Z,968.92
2018-01-18T16:03:57.861Z,968.82
2018-01-18T16:04:57.785Z,969.12
2018-01-18T16:06:52.017Z,969.02
2018-01-18T16:07:51.911Z,969.01
2018-01-18T16:09:47.187Z,969.34
2018-01-18T16:10:47.098Z,969.41
2018-01-18T16:12:41.391Z,969.23
2018-01-18T16:13:41.296Z,969.35
2018-01-18T16:15:35.825Z,969.28
2018-01-18T16:16:35.343Z,969.38
2018-01-18T16:18:29.611Z,969.66
2018-01-18T16:19:29.503Z,969.68
2018-01-18T16:21:23.885Z,969.60
2018-01-18T16:22:23.395Z,969.60
2018-01-18T16:24:17.671Z,969.53
2018-01-18T16:25:17.574Z,969.64
2018-01-18T16:27:11.786Z,969.78
2018-01-18T16:28:11.696Z,969.68
2018-01-18T16:30:06.012Z,969.77
2018-01-18T16:31:05.906Z,969.93
2018-01-18T16:33:00.270Z,970.12
2018-01-18T16:33:59.815Z,969.86
2018-01-18T16:35:54.092Z,969.91
2018-01-18T16:36:53.980Z,970.08
2018-01-18T16:38:48.235Z,970.00
2018-01-18T16:39:48.160Z,970.04
2018-01-18T16:41:42.631Z,970.08
2018-01-18T16:42:42.478Z,970.27
2018-01-18T16:44:35.115Z,970.18
2018-01-18T16:45:35.010Z,970.36
2018-01-18T16:47:29.252Z,970.40
2018-01-18T16:48:29.163Z,970.40
2018-01-18T16:50:23.291Z,970.33
2018-01-18T16:51:23.187Z,970.55
2018-01-18T16:53:17.484Z,970.55
2018-01-18T16:54:17.371Z,970.78
2018-01-18T16:56:11.609Z,970.68
2018-01-18T16:57:11.538Z,970.67
2018-01-18T16:59:05.804Z,970.78
2018-01-18T17:00:05.687Z,970.78
2018-01-18T17:01:59.955Z,970.91
2018-01-18T17:02:59.869Z,970.79
2018-01-18T17:04:53.906Z,970.95
2018-01-18T17:05:53.906Z,971.02
2018-01-18T17:07:46.745Z,971.07
2018-01-18T17:08:46.543Z,971.06
2018-01-18T17:10:40.824Z,971.19
2018-01-18T17:11:40.700Z,971.23
2018-01-18T17:13:35.104Z,971.22
2018-01-18T17:14:34.995Z,971.20
2018-01-18T17:16:28.911Z,971.20
2018-01-18T17:17:28.774Z,971.22
2018-01-18T17:19:23.050Z,971.23
2018-01-18T17:20:22.960Z,971.40
2018-01-18T17:22:17.236Z,971.76
2018-01-18T17:23:17.133Z,971.51
2018-01-18T17:25:11.396Z,971.54
2018-01-18T17:26:11.319Z,971.56
2018-01-18T17:28:05.650Z,971.64
2018-01-18T17:29:05.514Z,971.63
2018-01-18T17:31:00.039Z,971.63
2018-01-18T17:31:59.587Z,971.62
2018-01-18T17:33:53.890Z,971.57
2018-01-18T17:34:53.771Z,971.65
2018-01-18T17:36:47.754Z,971.62
2018-01-18T17:37:47.881Z,971.59
2018-01-18T17:39:41.946Z,971.66
2018-01-18T17:40:41.836Z,971.70
2018-01-18T17:42:35.844Z,971.64
2018-01-18T17:43:36.682Z,971.63
2018-01-18T17:45:29.975Z,971.68
2018-01-18T17:46:29.869Z,971.79
2018-01-18T17:48:24.391Z,971.75
2018-01-18T17:49:23.773Z,971.76
2018-01-18T17:51:17.421Z,971.82
2018-01-18T17:52:16.527Z,971.80
2018-01-18T17:54:10.769Z,971.93
2018-01-18T17:55:10.686Z,971.98
2018-01-18T17:57:05.315Z,972.00
2018-01-18T17:58:04.975Z,972.07
2018-01-18T17:59:58.855Z,971.98
2018-01-18T18:00:58.743Z,972.06
2018-01-18T18:02:53.122Z,972.06
2018-01-18T18:03:52.665Z,972.16
2018-01-18T18:05:46.937Z,972.18
2018-01-18T18:06:46.844Z,972.15